createdAt,value
2018-08-07T00:01:10.044Z,99663.97
2018-08-07T00:04:13.075Z,99665.02
2018-08-07T00:07:16.056Z,99661.17
2018-08-07T00:10:20.394Z,99656.61
2018-08-07T00:13:23.367Z,99649.81
2018-08-07T00:16:26.387Z,99651.20
2018-08-07T00:19:29.499Z,99646.39
2018-08-07T00:22:32.655Z,99646.12
2018-08-07T00:25:35.757Z,99641.50
2018-08-07T00:28:50.982Z,99636.61
2018-08-07T00:32:15.053Z,99633.88
2018-08-07T00:35:19.259Z,99632.04
2018-08-07T00:38:22.292Z,99621.66
2018-08-07T00:41:25.250Z,99624.37
2018-08-07T00:44:28.293Z,99614.64
2018-08-07T00:47:31.439Z,99612.84
2018-08-07T00:50:34.577Z,99611.34
2018-08-07T00:53:37.743Z,99608.15
2018-08-07T00:56:40.863Z,99606.95
2018-08-07T00:59:43.806Z,99608.77
2018-08-07T01:02:46.776Z,99599.23
2018-08-07T01:05:49.763Z,99601.16
2018-08-07T01:08:52.716Z,99594.61
2018-08-07T01:11:55.706Z,99600.34
2018-08-07T01:14:58.667Z,99593.97
2018-08-07T01:18:01.959Z,99589.80
2018-08-07T01:21:05.176Z,99591.02
2018-08-07T01:24:08.299Z,99588.81
2018-08-07T01:27:11.300Z,99587.24
2018-08-07T01:30:19.666Z,99580.84
2018-08-07T01:33:25.631Z,99583.98
2018-08-07T01:36:28.584Z,99585.69
2018-08-07T01:39:31.668Z,99579.41
2018-08-07T01:42:34.741Z,99576.79
2018-08-07T01:45:37.785Z,99575.35
2018-08-07T01:48:40.934Z,99573.06
2018-08-07T01:51:43.936Z,99573.66
2018-08-07T01:54:46.881Z,99576.73
2018-08-07T01:57:49.875Z,99575.52
2018-08-07T02:00:52.778Z,99572.92
2018-08-07T02:03:55.693Z,99570.42
2018-08-07T02:06:58.674Z,99572.03
2018-08-07T02:10:01.990Z,99572.00
2018-08-07T02:13:05.488Z,99576.94
2018-08-07T02:16:08.470Z,99567.48
2018-08-07T02:19:11.549Z,99569.42
2018-08-07T02:22:14.515Z,99574.59
2018-08-07T02:25:18.671Z,99564.91
2018-08-07T02:28:21.596Z,99561.58
2018-08-07T02:31:24.562Z,99563.62
2018-08-07T02:34:27.464Z,99564.42
2018-08-07T02:37:30.413Z,99566.19
2018-08-07T02:40:33.412Z,99561.42
2018-08-07T02:43:36.485Z,99556.53
2018-08-07T02:46:39.769Z,99552.25
2018-08-07T02:49:42.834Z,99550.09
2018-08-07T02:52:45.952Z,99556.16
2018-08-07T02:55:48.936Z,99556.52
2018-08-07T02:58:51.925Z,99561.41
2018-08-07T03:01:54.935Z,99551.53
2018-08-07T03:04:57.874Z,99558.31
2018-08-07T03:08:00.824Z,99551.95
2018-08-07T03:11:04.109Z,99549.77
2018-08-07T03:14:07.456Z,99551.48
2018-08-07T03:17:10.493Z,99548.08
2018-08-07T03:20:13.517Z,99551.61
2018-08-07T03:23:16.527Z,99548.67
2018-08-07T03:26:19.490Z,99554.92
2018-08-07T03:29:22.410Z,99557.55
2018-08-07T03:32:25.353Z,99559.21
2018-08-07T03:35:28.287Z,99553.17
2018-08-07T03:38:31.241Z,99550.77
2018-08-07T03:41:34.200Z,99561.80
2018-08-07T03:44:37.209Z,99559.71
2018-08-07T03:47:40.365Z,99566.18
2018-08-07T03:50:43.376Z,99561.31
2018-08-07T03:53:46.360Z,99569.02
2018-08-07T03:56:49.313Z,99565.23
2018-08-07T03:59:52.256Z,99565.78
2018-08-07T04:02:55.197Z,99564.86
2018-08-07T04:05:58.136Z,99572.36
2018-08-07T04:09:01.118Z,99565.70
2018-08-07T04:12:04.269Z,99565.84
2018-08-07T04:15:10.193Z,99566.58
2018-08-07T04:18:13.176Z,99563.72
2018-08-07T04:21:16.177Z,99564.83
2018-08-07T04:24:19.107Z,99557.21
2018-08-07T04:27:22.062Z,99560.30
2018-08-07T04:30:25.046Z,99570.85
2018-08-07T04:33:27.980Z,99569.29
2018-08-07T04:36:30.969Z,99572.47
2018-08-07T04:39:34.043Z,99569.96
2018-08-07T04:42:37.997Z,99569.00
2018-08-07T04:45:41.125Z,99565.08
2018-08-07T04:48:44.124Z,99565.23
2018-08-07T04:51:47.124Z,99566.05
2018-08-07T04:54:50.085Z,99566.31
2018-08-07T04:57:53.093Z,99569.87
2018-08-07T05:00:57.525Z,99567.54
2018-08-07T05:04:00.475Z,99569.64
2018-08-07T05:07:03.573Z,99576.89
2018-08-07T05:10:11.592Z,99576.13
2018-08-07T05:13:14.535Z,99582.52
2018-08-07T05:16:17.490Z,99583.38
2018-08-07T05:19:20.420Z,99577.59
2018-08-07T05:22:23.344Z,99576.69
2018-08-07T05:25:26.228Z,99582.27
2018-08-07T05:28:29.228Z,99582.00
2018-08-07T05:31:32.216Z,99553.20
2018-08-07T05:34:35.265Z,99574.69
2018-08-07T05:37:38.511Z,99582.14
2018-08-07T05:40:41.584Z,99583.75
2018-08-07T05:43:44.582Z,99580.82
2018-08-07T05:46:47.602Z,99584.50
2018-08-07T05:49:50.629Z,99583.98
2018-08-07T05:52:53.562Z,99580.97
2018-08-07T05:55:56.477Z,99581.94
2018-08-07T05:58:59.503Z,99585.61
2018-08-07T06:02:02.883Z,99580.20
2018-08-07T06:05:06.818Z,99584.37
2018-08-07T06:08:09.920Z,99578.48
2018-08-07T06:11:12.967Z,99584.74
2018-08-07T06:14:15.966Z,99580.95
2018-08-07T06:17:19.026Z,99589.05
2018-08-07T06:20:22.029Z,99590.98
2018-08-07T06:23:24.993Z,99588.64
2018-08-07T06:26:27.955Z,99587.14
2018-08-07T06:29:31.080Z,99589.02
2018-08-07T06:32:40.855Z,99594.74
2018-08-07T06:35:43.914Z,99591.91
2018-08-07T06:38:46.942Z,99590.45
2018-08-07T06:41:49.922Z,99581.20
2018-08-07T06:44:52.840Z,99582.17
2018-08-07T06:47:55.721Z,99573.44
2018-08-07T06:50:58.720Z,99576.72
2018-08-07T06:54:01.754Z,99574.98
2018-08-07T06:57:05.357Z,99576.19
2018-08-07T07:00:13.141Z,99572.01
2018-08-07T07:03:16.090Z,99566.58
2018-08-07T07:06:18.997Z,99573.16
2018-08-07T07:09:22.052Z,99561.45
2018-08-07T07:12:25.788Z,99566.30
2018-08-07T07:15:29.700Z,99560.48
2018-08-07T07:18:33.284Z,99561.84
2018-08-07T07:21:36.353Z,99569.34
2018-08-07T07:24:39.401Z,99559.58
2018-08-07T07:27:42.514Z,99559.10
2018-08-07T07:30:45.664Z,99557.28
2018-08-07T07:33:48.737Z,99554.39
2018-08-07T07:36:54.865Z,99554.15
2018-08-07T07:39:58.145Z,99554.97
2018-08-07T07:43:01.662Z,99549.29
2018-08-07T07:46:05.192Z,99548.80
2018-08-07T07:49:08.427Z,99545.84
2018-08-07T07:52:11.512Z,99539.48
2018-08-07T07:55:16.262Z,99527.37
2018-08-07T07:58:19.333Z,99529.06
2018-08-07T08:01:22.474Z,99526.19
2018-08-07T08:04:25.562Z,99528.92
2018-08-07T08:07:28.616Z,99531.75
2018-08-07T08:10:31.689Z,99531.86
2018-08-07T08:13:34.949Z,99530.27
2018-08-07T08:16:38.354Z,99529.18
2018-08-07T08:19:41.470Z,99528.42
2018-08-07T08:22:44.577Z,99525.61
2018-08-07T08:25:47.653Z,99524.06
2018-08-07T08:28:51.104Z,99526.22
2018-08-07T08:31:54.088Z,99522.05
2018-08-07T08:34:57.314Z,99523.69
2018-08-07T08:38:00.347Z,99525.30
2018-08-07T08:41:03.467Z,99520.30
2018-08-07T08:44:07.116Z,99518.48
2018-08-07T08:47:10.226Z,99513.23
2018-08-07T08:50:15.459Z,99511.64
2018-08-07T08:53:18.533Z,99504.75
2018-08-07T08:57:46.137Z,99501.70
2018-08-07T09:00:49.189Z,99504.25
2018-08-07T09:03:52.661Z,99494.06
2018-08-07T09:06:55.645Z,99492.51
2018-08-07T09:09:58.810Z,99488.20
2018-08-07T09:13:02.265Z,99495.33
2018-08-07T09:16:05.489Z,99487.28
2018-08-07T09:19:08.669Z,99499.16
2018-08-07T09:22:11.767Z,99485.69
2018-08-07T09:25:14.982Z,99481.73
2018-08-07T09:28:17.921Z,99483.78
2018-08-07T09:31:20.977Z,99475.44
2018-08-07T09:34:23.988Z,99475.80
2018-08-07T09:37:26.957Z,99474.91
2018-08-07T09:40:30.754Z,99470.95
2018-08-07T09:43:33.917Z,99462.20
2018-08-07T09:46:37.343Z,99463.94
2018-08-07T09:49:40.657Z,99459.27
2018-08-07T09:52:44.167Z,99468.02
2018-08-07T09:55:47.180Z,99459.28
2018-08-07T09:58:50.194Z,99465.88
2018-08-07T10:01:59.677Z,99466.63
2018-08-07T10:05:02.855Z,99457.98
2018-08-07T10:08:05.981Z,99457.48
2018-08-07T10:11:09.138Z,99443.77
2018-08-07T10:14:12.343Z,99449.70
2018-08-07T10:17:15.449Z,99442.88
2018-08-07T10:20:18.694Z,99439.73
2018-08-07T10:23:21.898Z,99429.23
2018-08-07T10:26:25.031Z,99432.31
2018-08-07T10:29:28.141Z,99425.86
2018-08-07T10:32:31.351Z,99423.34
2018-08-07T10:35:34.542Z,99421.52
2018-08-07T10:38:37.722Z,99423.50
2018-08-07T10:41:41.514Z,99411.88
2018-08-07T10:44:44.619Z,99419.83
2018-08-07T10:47:47.828Z,99411.41
2018-08-07T10:50:50.923Z,99413.73
2018-08-07T10:53:54.126Z,99403.97
2018-08-07T10:56:57.330Z,99402.73
2018-08-07T11:00:00.477Z,99407.47
2018-08-07T11:03:03.755Z,99397.23
2018-08-07T11:06:06.880Z,99397.55
2018-08-07T11:09:13.363Z,99387.75
2018-08-07T11:12:16.548Z,99397.33
2018-08-07T11:15:23.559Z,99394.52
2018-08-07T11:18:26.650Z,99393.38
2018-08-07T11:21:29.841Z,99379.70
2018-08-07T11:24:33.046Z,99370.70
2018-08-07T11:27:36.160Z,99372.24
2018-08-07T11:30:39.299Z,99375.97
2018-08-07T11:33:42.488Z,99368.55
2018-08-07T11:36:45.626Z,99360.11
2018-08-07T11:39:48.827Z,99363.70
2018-08-07T11:42:52.691Z,99354.59
2018-08-07T11:45:55.850Z,99347.28
2018-08-07T11:48:59.064Z,99352.70
2018-08-07T11:52:02.227Z,99351.09
2018-08-07T11:55:05.802Z,99346.58
2018-08-07T11:58:08.967Z,99338.80
2018-08-07T12:01:12.186Z,99344.11
2018-08-07T12:04:15.374Z,99340.95
2018-08-07T12:07:18.521Z,99340.94
2018-08-07T12:10:21.726Z,99344.99
2018-08-07T12:13:24.909Z,99342.77
2018-08-07T12:16:28.090Z,99331.57
2018-08-07T12:19:31.328Z,99343.25
2018-08-07T12:22:34.609Z,99340.06
2018-08-07T12:25:37.995Z,99344.23
2018-08-07T12:28:41.180Z,99321.41
2018-08-07T12:31:44.472Z,99329.95
2018-08-07T12:34:47.746Z,99268.13
2018-08-07T12:37:51.026Z,99318.47
2018-08-07T12:40:54.241Z,99320.05
2018-08-07T12:43:57.640Z,99316.66
2018-08-07T12:47:01.132Z,99311.84
2018-08-07T12:50:07.179Z,99312.20
2018-08-07T12:53:11.787Z,99313.88
2018-08-07T12:56:15.814Z,99314.78
2018-08-07T12:59:19.413Z,99309.21
2018-08-07T13:02:25.486Z,99304.80
2018-08-07T13:05:29.754Z,99300.81
2018-08-07T13:08:33.303Z,99300.13
2018-08-07T13:11:37.001Z,99288.34
2018-08-07T13:14:40.481Z,99287.00
2018-08-07T13:17:44.526Z,99287.06
2018-08-07T13:20:48.061Z,99281.08
2018-08-07T13:23:51.876Z,99280.85
2018-08-07T13:26:55.069Z,99276.25
2018-08-07T13:29:58.594Z,99274.77
2018-08-07T13:33:02.048Z,99275.66
2018-08-07T13:36:05.799Z,99267.88
2018-08-07T13:39:10.349Z,99258.64
2018-08-07T13:42:15.434Z,99252.30
2018-08-07T13:45:23.602Z,99251.55
2018-08-07T13:48:27.884Z,99247.91
2018-08-07T13:51:31.278Z,99245.09
2018-08-07T13:54:34.726Z,99239.96
2018-08-07T13:57:38.501Z,99240.32
2018-08-07T14:00:42.758Z,99243.42
2018-08-07T14:03:46.161Z,99232.60
2018-08-07T14:06:49.904Z,99241.00
2018-08-07T14:09:53.309Z,99235.19
2018-08-07T14:12:56.754Z,99232.53
2018-08-07T14:16:00.227Z,99235.19
2018-08-07T14:19:03.732Z,99240.38
2018-08-07T14:22:07.935Z,99229.00
2018-08-07T14:25:22.109Z,99233.67
2018-08-07T14:28:25.835Z,99232.36
2018-08-07T14:31:29.353Z,99229.53
2018-08-07T14:34:32.633Z,99234.86
2018-08-07T14:37:36.017Z,99228.02
2018-08-07T14:40:39.565Z,99230.17
2018-08-07T14:43:42.781Z,99230.18
2018-08-07T14:46:46.072Z,99228.08
2018-08-07T14:49:49.264Z,99221.19
2018-08-07T14:52:52.689Z,99230.47
2018-08-07T14:55:55.927Z,99223.44
2018-08-07T14:58:59.151Z,99225.20
2018-08-07T15:02:02.402Z,99230.83
2018-08-07T15:05:05.746Z,99231.69
2018-08-07T15:08:09.109Z,99223.08
2018-08-07T15:11:12.331Z,99226.58
2018-08-07T15:14:15.530Z,99221.09
2018-08-07T15:17:18.736Z,99230.02
2018-08-07T15:20:24.875Z,99219.95
2018-08-07T15:23:28.046Z,99218.24
2018-08-07T15:26:31.184Z,99206.64
2018-08-07T15:29:34.422Z,99216.55
2018-08-07T15:32:38.158Z,99215.92
2018-08-07T15:35:41.272Z,99209.09
2018-08-07T15:38:44.454Z,99217.06
2018-08-07T15:41:47.632Z,99215.36
2018-08-07T15:44:50.819Z,99214.94
2018-08-07T15:47:54.098Z,99209.70
2018-08-07T15:50:57.246Z,99218.19
2018-08-07T15:54:00.469Z,99211.79
2018-08-07T15:57:03.533Z,99211.13
2018-08-07T16:00:10.234Z,99212.45
2018-08-07T16:03:13.489Z,99211.66
2018-08-07T16:06:16.727Z,99219.27
2018-08-07T16:09:20.082Z,99208.68
2018-08-07T16:12:23.179Z,99209.91
2018-08-07T16:15:26.424Z,99217.18
2018-08-07T16:18:29.585Z,99206.86
2018-08-07T16:21:32.781Z,99209.17
2018-08-07T16:24:35.967Z,99211.91
2018-08-07T16:27:40.706Z,99212.00
2018-08-07T16:30:43.930Z,99209.25
2018-08-07T16:33:47.139Z,99211.36
2018-08-07T16:36:50.396Z,99218.38
2018-08-07T16:39:53.517Z,99213.37
2018-08-07T16:42:56.628Z,99217.59
2018-08-07T16:45:59.731Z,99213.94
2018-08-07T16:49:02.969Z,99216.16
2018-08-07T16:52:06.132Z,99217.09
2018-08-07T16:55:10.209Z,99213.58
2018-08-07T16:58:13.342Z,99217.22
2018-08-07T17:01:16.513Z,99211.75
2018-08-07T17:04:19.918Z,99211.56
2018-08-07T17:07:23.365Z,99213.50
2018-08-07T17:10:28.345Z,99213.70
2018-08-07T17:13:31.863Z,99212.53
2018-08-07T17:16:35.565Z,99212.67
2018-08-07T17:19:38.881Z,99215.22
2018-08-07T17:22:43.110Z,99215.86
2018-08-07T17:25:46.659Z,99222.14
2018-08-07T17:28:50.812Z,99226.45
2018-08-07T17:31:55.103Z,99227.17
2018-08-07T17:34:58.898Z,99224.41
2018-08-07T17:38:02.182Z,99225.62
2018-08-07T17:41:05.657Z,99236.66
2018-08-07T17:44:09.295Z,99233.41
2018-08-07T17:47:13.120Z,99234.77
2018-08-07T17:50:20.041Z,99231.84
2018-08-07T17:53:23.510Z,99236.22
2018-08-07T17:56:27.333Z,99243.07
2018-08-07T17:59:31.065Z,99246.23
2018-08-07T18:02:34.864Z,99242.31
2018-08-07T18:05:38.754Z,99244.45
2018-08-07T18:08:42.598Z,99243.08
2018-08-07T18:11:46.262Z,99244.59
2018-08-07T18:14:49.751Z,99250.89
2018-08-07T18:17:53.378Z,99255.98
2018-08-07T18:20:57.324Z,99256.27
2018-08-07T18:24:00.965Z,99262.25
2018-08-07T18:27:04.544Z,99262.92
2018-08-07T18:30:11.432Z,99265.83
2018-08-07T18:33:15.134Z,99266.09
2018-08-07T18:36:18.928Z,99273.05
2018-08-07T18:39:22.522Z,99270.92
2018-08-07T18:42:25.910Z,99277.73
2018-08-07T18:45:29.544Z,99273.06
2018-08-07T18:48:33.397Z,99280.23
2018-08-07T18:51:37.252Z,99279.36
2018-08-07T18:55:12.792Z,99280.36
2018-08-07T18:58:16.223Z,99278.31
2018-08-07T19:01:19.327Z,99281.30
2018-08-07T19:04:22.473Z,99279.02
2018-08-07T19:07:25.856Z,99276.97
2018-08-07T19:10:29.579Z,99272.67
2018-08-07T19:13:32.885Z,99272.67
2018-08-07T19:16:36.445Z,99280.18
2018-08-07T19:19:39.562Z,99276.29
2018-08-07T19:22:43.374Z,99275.05
2018-08-07T19:25:47.525Z,99279.20
2018-08-07T19:28:50.826Z,99276.67
2018-08-07T19:31:54.685Z,99270.88
2018-08-07T19:34:58.178Z,99264.41
2018-08-07T19:38:01.544Z,99267.67
2018-08-07T19:41:06.571Z,99264.99
2018-08-07T19:44:10.495Z,99279.48
2018-08-07T19:47:14.200Z,99278.97
2018-08-07T19:50:19.732Z,99272.00
2018-08-07T19:53:23.432Z,99275.59
2018-08-07T19:56:26.564Z,99283.06
2018-08-07T19:59:30.148Z,99296.94
2018-08-07T20:02:33.830Z,99303.59
2018-08-07T20:05:39.961Z,99313.99
2018-08-07T20:08:43.482Z,99311.79
2018-08-07T20:11:46.840Z,99320.14
2018-08-07T20:14:49.888Z,99322.53
2018-08-07T20:17:54.044Z,99314.36
2018-08-07T20:20:57.118Z,99320.14
2018-08-07T20:24:00.259Z,99308.72
2018-08-07T20:27:03.814Z,99308.90
2018-08-07T20:30:14.612Z,99309.59
2018-08-07T20:33:17.576Z,99319.64
2018-08-07T20:36:21.163Z,99327.98
2018-08-07T20:39:24.240Z,99329.86
2018-08-07T20:42:27.329Z,99340.91
2018-08-07T20:45:30.634Z,99339.78
2018-08-07T20:48:35.880Z,99334.48
2018-08-07T20:51:39.118Z,99337.06
2018-08-07T20:54:42.328Z,99335.56
2018-08-07T20:57:45.509Z,99334.14
2018-08-07T21:00:48.766Z,99333.95
2018-08-07T21:03:51.975Z,99322.70
2018-08-07T21:06:55.139Z,99325.88
2018-08-07T21:09:58.229Z,99311.86
2018-08-07T21:13:01.403Z,99319.19
2018-08-07T21:16:04.588Z,99314.26
2018-08-07T21:19:07.861Z,99260.91
2018-08-07T21:22:11.045Z,99311.66
2018-08-07T21:25:16.781Z,99302.52
2018-08-07T21:28:26.704Z,99295.04
2018-08-07T21:31:29.922Z,99298.42
2018-08-07T21:34:33.024Z,99295.75
2018-08-07T21:37:36.115Z,99286.53
2018-08-07T21:40:39.214Z,99281.39
2018-08-07T21:43:42.296Z,99274.93
2018-08-07T21:46:45.397Z,99271.91
2018-08-07T21:49:55.237Z,99261.45
2018-08-07T21:52:58.349Z,99244.86
2018-08-07T21:56:01.456Z,99247.12
2018-08-07T21:59:05.066Z,99251.81
2018-08-07T22:02:08.186Z,99247.12
2018-08-07T22:05:11.429Z,99242.88
2018-08-07T22:08:15.694Z,99231.52
2018-08-07T22:11:18.850Z,99226.28
2018-08-07T22:14:21.903Z,99213.34
2018-08-07T22:17:24.987Z,99197.52
2018-08-07T22:20:28.110Z,99181.84
2018-08-07T22:23:31.199Z,99143.89
2018-08-07T22:26:34.309Z,99163.05
2018-08-07T22:29:37.400Z,99159.40
2018-08-07T22:32:40.530Z,99157.90
2018-08-07T22:35:43.710Z,99155.16
2018-08-07T22:38:46.849Z,99151.05
2018-08-07T22:41:49.931Z,99149.94
2018-08-07T22:44:53.031Z,99145.50
2018-08-07T22:47:56.113Z,99143.76
2018-08-07T22:50:59.148Z,99147.76
2018-08-07T22:54:02.314Z,99149.71
2018-08-07T22:57:09.645Z,99154.80
2018-08-07T23:00:16.929Z,99148.98
2018-08-07T23:03:19.926Z,99145.31
2018-08-07T23:06:23.082Z,99131.42
2018-08-07T23:09:26.146Z,99119.41
2018-08-07T23:12:29.225Z,99120.34
2018-08-07T23:15:32.346Z,99119.45
2018-08-07T23:18:35.468Z,99128.74
2018-08-07T23:21:38.569Z,99117.47
2018-08-07T23:24:41.768Z,99114.61
2018-08-07T23:27:44.893Z,99116.44
2018-08-07T23:30:47.986Z,99115.28
2018-08-07T23:33:51.137Z,99104.52
2018-08-07T23:36:54.199Z,99101.00
2018-08-07T23:39:57.360Z,99095.05
2018-08-07T23:43:00.457Z,99104.05
2018-08-07T23:46:03.585Z,99100.65
2018-08-07T23:49:06.733Z,99096.23
2018-08-07T23:52:09.826Z,99092.33
2018-08-07T23:55:12.908Z,99084.27
2018-08-07T23:58:15.988Z,99086.00
